createdAt,value
2018-02-12T00:00:03.892Z,95.47
2018-02-12T00:02:34.732Z,95.49
2018-02-12T00:05:10.732Z,95.44
2018-02-12T00:07:41.496Z,95.62
2018-02-12T00:10:12.273Z,95.65
2018-02-12T00:12:43.173Z,95.71
2018-02-12T00:15:13.986Z,95.62
2018-02-12T00:17:44.936Z,95.53
2018-02-12T00:20:15.776Z,95.26
2018-02-12T00:22:46.960Z,95.44
2018-02-12T00:25:17.996Z,95.45
2018-02-12T00:27:48.840Z,95.77
2018-02-12T00:30:19.636Z,95.83
2018-02-12T00:32:50.427Z,95.92
2018-02-12T00:35:21.176Z,96.08
2018-02-12T00:37:51.970Z,96.23
2018-02-12T00:40:22.728Z,96.28
2018-02-12T00:42:53.508Z,96.45
2018-02-12T00:45:24.249Z,96.70
2018-02-12T00:47:55.048Z,96.79
2018-02-12T00:50:25.849Z,96.99
2018-02-12T00:52:56.620Z,96.96
2018-02-12T00:55:27.468Z,97.17
2018-02-12T00:57:58.336Z,97.38
2018-02-12T01:00:29.252Z,97.39
2018-02-12T01:03:00.112Z,97.44
2018-02-12T01:05:30.912Z,97.84
2018-02-12T01:08:01.814Z,97.98
2018-02-12T01:10:32.707Z,98.03
2018-02-12T01:13:03.629Z,98.14
2018-02-12T01:15:34.496Z,98.05
2018-02-12T01:18:05.317Z,97.91
2018-02-12T01:20:36.308Z,97.75
2018-02-12T01:23:07.180Z,97.59
2018-02-12T01:25:37.963Z,97.40
2018-02-12T01:28:08.737Z,97.27
2018-02-12T01:30:39.516Z,97.23
2018-02-12T01:33:10.432Z,97.20
2018-02-12T01:35:41.357Z,97.18
2018-02-12T01:38:12.240Z,97.34
2018-02-12T01:40:43.032Z,97.31
2018-02-12T01:43:13.937Z,97.41
2018-02-12T01:45:44.767Z,97.12
2018-02-12T01:48:15.642Z,97.09
2018-02-12T01:50:46.427Z,97.13
2018-02-12T01:53:17.709Z,97.27
2018-02-12T01:55:48.996Z,97.26
2018-02-12T01:58:20.361Z,97.32
2018-02-12T02:00:51.512Z,97.38
2018-02-12T02:03:22.349Z,97.26
2018-02-12T02:05:55.224Z,97.24
2018-02-12T02:08:26.403Z,96.98
2018-02-12T02:10:57.419Z,96.84
2018-02-12T02:13:28.254Z,96.68
2018-02-12T02:15:59.064Z,96.56
2018-02-12T02:18:29.875Z,96.40
2018-02-12T02:21:00.676Z,96.37
2018-02-12T02:23:31.524Z,96.17
2018-02-12T02:26:02.424Z,96.31
2018-02-12T02:28:33.272Z,96.36
2018-02-12T02:31:04.053Z,96.33
2018-02-12T02:33:34.821Z,96.31
2018-02-12T02:36:05.693Z,96.22
2018-02-12T02:38:36.472Z,96.38
2018-02-12T02:41:07.445Z,96.48
2018-02-12T02:43:38.227Z,96.52
2018-02-12T02:46:08.985Z,96.71
2018-02-12T02:48:39.776Z,96.85
2018-02-12T02:51:12.719Z,96.90
2018-02-12T02:53:43.536Z,96.95
2018-02-12T02:56:14.363Z,97.08
2018-02-12T02:58:45.185Z,97.18
2018-02-12T03:01:16.020Z,97.30
2018-02-12T03:03:46.853Z,97.29
2018-02-12T03:06:17.804Z,97.41
2018-02-12T03:08:48.621Z,97.44
2018-02-12T03:11:19.419Z,97.51
2018-02-12T03:13:50.183Z,97.51
2018-02-12T03:16:20.960Z,97.49
2018-02-12T03:18:51.789Z,97.50
2018-02-12T03:21:22.560Z,97.49
2018-02-12T03:23:53.337Z,97.36
2018-02-12T03:26:24.095Z,97.37
2018-02-12T03:28:54.855Z,97.33
2018-02-12T03:31:25.648Z,97.38
2018-02-12T03:33:56.413Z,97.48
2018-02-12T03:36:27.219Z,97.54
2018-02-12T03:38:57.995Z,97.46
2018-02-12T03:41:28.764Z,97.41
2018-02-12T03:44:00.588Z,97.35
2018-02-12T03:46:31.368Z,97.29
2018-02-12T03:49:02.201Z,96.97
2018-02-12T03:51:32.972Z,96.89
2018-02-12T03:54:03.756Z,96.52
2018-02-12T03:56:34.543Z,96.43
2018-02-12T03:59:05.312Z,96.43
2018-02-12T04:01:36.089Z,96.48
2018-02-12T04:04:06.920Z,96.49
2018-02-12T04:06:37.760Z,96.34
2018-02-12T04:09:08.813Z,96.27
2018-02-12T04:11:39.748Z,96.24
2018-02-12T04:14:10.548Z,96.28
2018-02-12T04:16:41.297Z,96.25
2018-02-12T04:19:12.124Z,96.31
2018-02-12T04:21:43.781Z,96.48
2018-02-12T04:24:14.876Z,96.47
2018-02-12T04:26:46.163Z,96.22
2018-02-12T04:29:18.074Z,96.31
2018-02-12T04:31:49.253Z,96.21
2018-02-12T04:34:20.422Z,96.33
2018-02-12T04:36:51.599Z,96.33
2018-02-12T04:39:22.933Z,96.32
2018-02-12T04:41:54.293Z,96.29
2018-02-12T04:44:25.284Z,96.40
2018-02-12T04:46:56.632Z,96.41
2018-02-12T04:49:28.172Z,96.43
2018-02-12T04:51:59.830Z,96.45
2018-02-12T04:54:31.109Z,96.41
2018-02-12T04:57:02.131Z,96.37
2018-02-12T04:59:33.318Z,96.39
2018-02-12T05:02:04.387Z,96.29
2018-02-12T05:04:35.571Z,96.17
2018-02-12T05:07:06.505Z,96.29
2018-02-12T05:09:37.594Z,96.06
2018-02-12T05:12:08.525Z,96.01
2018-02-12T05:14:39.805Z,95.92
2018-02-12T05:17:11.376Z,95.85
2018-02-12T05:19:42.414Z,95.69
2018-02-12T05:22:13.473Z,95.46
2018-02-12T05:24:44.709Z,95.31
2018-02-12T05:27:15.921Z,95.37
2018-02-12T05:29:47.168Z,94.71
2018-02-12T05:32:18.693Z,94.60
2018-02-12T05:34:49.690Z,93.76
2018-02-12T05:37:20.803Z,93.32
2018-02-12T05:39:52.052Z,93.37
2018-02-12T05:42:23.150Z,93.42
2018-02-12T05:44:54.277Z,92.76
2018-02-12T05:47:25.420Z,92.41
2018-02-12T05:49:56.305Z,92.48
2018-02-12T05:52:27.398Z,93.07
2018-02-12T05:54:58.231Z,93.50
2018-02-12T05:57:28.992Z,93.73
2018-02-12T05:59:59.761Z,93.94
2018-02-12T06:02:30.617Z,94.29
2018-02-12T06:05:01.448Z,94.22
2018-02-12T06:07:32.196Z,94.09
2018-02-12T06:10:03.020Z,93.41
2018-02-12T06:12:33.871Z,93.56
2018-02-12T06:15:04.740Z,93.12
2018-02-12T06:17:35.675Z,92.78
2018-02-12T06:20:06.536Z,93.00
2018-02-12T06:22:37.508Z,93.20
2018-02-12T06:25:08.718Z,93.15
2018-02-12T06:27:39.855Z,93.33
2018-02-12T06:30:10.995Z,93.86
2018-02-12T06:32:42.017Z,94.44
2018-02-12T06:35:13.048Z,94.61
2018-02-12T06:37:43.953Z,94.65
2018-02-12T06:40:15.000Z,94.66
2018-02-12T06:42:47.077Z,94.79
2018-02-12T06:45:18.036Z,95.01
2018-02-12T06:47:49.905Z,95.17
2018-02-12T06:50:20.973Z,95.37
2018-02-12T06:52:52.040Z,95.68
2018-02-12T06:55:23.129Z,95.73
2018-02-12T06:57:54.260Z,95.83
2018-02-12T07:00:25.264Z,95.97
2018-02-12T07:02:56.430Z,96.16
2018-02-12T07:05:27.300Z,96.06
2018-02-12T07:07:58.154Z,96.08
2018-02-12T07:10:29.132Z,95.87
2018-02-12T07:12:59.992Z,95.75
2018-02-12T07:15:30.853Z,95.58
2018-02-12T07:18:01.661Z,95.53
2018-02-12T07:20:32.490Z,95.47
2018-02-12T07:23:03.378Z,95.27
2018-02-12T07:25:34.277Z,94.78
2018-02-12T07:28:05.124Z,94.60
2018-02-12T07:30:36.397Z,94.16
2018-02-12T07:33:08.710Z,93.88
2018-02-12T07:35:39.585Z,93.44
2018-02-12T07:38:10.540Z,92.78
2018-02-12T07:40:41.404Z,92.05
2018-02-12T07:43:12.229Z,91.32
2018-02-12T07:45:43.016Z,90.99
2018-02-12T07:48:13.762Z,90.12
2018-02-12T07:50:44.508Z,89.68
2018-02-12T07:53:15.289Z,89.21
2018-02-12T07:55:46.084Z,88.21
2018-02-12T07:58:16.837Z,87.97
2018-02-12T08:00:47.781Z,87.58
2018-02-12T08:03:18.585Z,87.07
2018-02-12T08:05:49.412Z,86.53
2018-02-12T08:08:20.173Z,87.24
2018-02-12T08:10:51.869Z,86.26
2018-02-12T08:13:23.080Z,86.66
2018-02-12T08:15:54.629Z,86.08
2018-02-12T08:18:26.082Z,85.36
2018-02-12T08:20:57.472Z,85.39
2018-02-12T08:23:28.636Z,85.16
2018-02-12T08:25:59.901Z,85.63
2018-02-12T08:28:31.346Z,84.65
2018-02-12T08:31:02.884Z,85.04
2018-02-12T08:33:33.994Z,84.53
2018-02-12T08:36:05.210Z,84.78
2018-02-12T08:38:36.305Z,85.08
2018-02-12T08:41:07.573Z,84.08
2018-02-12T08:43:39.036Z,82.11
2018-02-12T08:46:10.458Z,82.14
2018-02-12T08:48:41.987Z,81.30
2018-02-12T08:51:14.057Z,79.95
2018-02-12T08:53:45.606Z,79.37
2018-02-12T08:56:16.758Z,78.39
2018-02-12T08:58:47.866Z,78.41
2018-02-12T09:01:19.339Z,76.16
2018-02-12T09:03:50.483Z,75.69
2018-02-12T09:06:21.539Z,76.62
2018-02-12T09:08:52.764Z,78.56
2018-02-12T09:11:27.275Z,76.67
2018-02-12T09:13:58.300Z,75.26
2018-02-12T09:16:30.619Z,76.67
2018-02-12T09:19:14.648Z,75.51
2018-02-12T09:21:45.553Z,76.43
2018-02-12T09:24:17.393Z,75.44
2018-02-12T09:26:48.188Z,72.68
2018-02-12T09:29:22.180Z,72.50
2018-02-12T09:31:52.948Z,73.03
2018-02-12T09:34:23.737Z,72.36
2018-02-12T09:36:54.663Z,74.41
2018-02-12T09:39:25.463Z,74.01
2018-02-12T09:41:56.284Z,74.14
2018-02-12T09:44:27.072Z,72.71
2018-02-12T09:46:57.943Z,72.31
2018-02-12T09:49:28.798Z,72.20
2018-02-12T09:51:59.568Z,76.09
2018-02-12T09:54:30.343Z,74.50
2018-02-12T09:57:01.276Z,74.31
2018-02-12T09:59:32.138Z,75.12
2018-02-12T10:02:02.999Z,72.52
2018-02-12T10:04:34.858Z,74.26
2018-02-12T10:07:05.639Z,72.84
2018-02-12T10:09:37.575Z,71.01
2018-02-12T10:12:08.633Z,71.59
2018-02-12T10:14:40.512Z,73.23
2018-02-12T10:17:13.315Z,73.00
2018-02-12T11:05:34.200Z,63.07
2018-02-12T11:08:05.033Z,61.66
2018-02-12T11:10:38.192Z,62.52
2018-02-12T11:13:09.033Z,64.58
2018-02-12T11:15:39.861Z,65.67
2018-02-12T11:18:10.684Z,65.98
2018-02-12T11:20:41.542Z,66.80
2018-02-12T11:23:12.384Z,65.18
2018-02-12T11:25:44.309Z,65.67
2018-02-12T11:28:15.130Z,65.04
2018-02-12T11:30:45.924Z,66.09
2018-02-12T11:33:16.797Z,65.69
2018-02-12T11:35:47.646Z,63.90
2018-02-12T11:38:18.480Z,65.56
2018-02-12T11:40:49.328Z,65.40
2018-02-12T11:43:20.153Z,63.80
2018-02-12T11:45:50.958Z,63.56
2018-02-12T11:48:23.878Z,64.41
2018-02-12T11:50:54.694Z,63.10
2018-02-12T11:53:25.542Z,62.46
2018-02-12T11:55:56.328Z,67.34
2018-02-12T11:58:27.160Z,63.83
2018-02-12T12:00:58.001Z,68.18
2018-02-12T12:03:28.909Z,76.76
2018-02-12T12:05:59.782Z,83.23
2018-02-12T12:08:30.680Z,83.69
2018-02-12T12:11:01.557Z,84.34
2018-02-12T12:13:32.450Z,84.29
2018-02-12T12:16:03.388Z,83.85
2018-02-12T12:18:34.313Z,83.71
2018-02-12T12:21:05.245Z,84.36
2018-02-12T12:23:36.146Z,81.36
2018-02-12T12:26:08.025Z,80.86
2018-02-12T12:28:38.934Z,80.01
2018-02-12T12:31:09.769Z,79.54
2018-02-12T12:33:40.604Z,79.18
2018-02-12T12:36:11.523Z,78.10
2018-02-12T12:38:42.467Z,76.23
2018-02-12T12:41:13.281Z,75.25
2018-02-12T12:43:44.113Z,77.78
2018-02-12T12:46:14.991Z,73.31
2018-02-12T12:48:45.893Z,73.37
2018-02-12T12:51:16.751Z,73.81
2018-02-12T12:53:47.610Z,76.94
2018-02-12T12:56:19.436Z,80.71
2018-02-12T12:58:50.420Z,82.62
2018-02-12T13:01:21.359Z,80.38
2018-02-12T13:03:52.278Z,84.52
2018-02-12T13:06:23.092Z,84.86
2018-02-12T13:08:53.913Z,86.18
2018-02-12T13:11:24.717Z,85.81
2018-02-12T13:13:55.643Z,85.90
2018-02-12T13:16:26.538Z,84.72
2018-02-12T13:18:57.521Z,83.71
2018-02-12T13:21:28.310Z,82.22
2018-02-12T13:23:59.156Z,80.86
2018-02-12T13:26:29.970Z,79.87
2018-02-12T13:29:00.816Z,80.70
2018-02-12T13:31:31.601Z,77.93
2018-02-12T13:34:02.437Z,76.70
2018-02-12T13:36:33.268Z,78.92
2018-02-12T13:39:04.128Z,78.81
2018-02-12T13:41:34.937Z,77.87
2018-02-12T13:44:05.858Z,77.21
2018-02-12T13:46:36.733Z,79.37
2018-02-12T13:49:07.572Z,78.44
2018-02-12T13:51:38.398Z,75.99
2018-02-12T13:54:09.225Z,76.66
2018-02-12T13:56:40.071Z,75.62
2018-02-12T13:59:11.005Z,74.40
2018-02-12T14:01:41.839Z,75.88
2018-02-12T14:04:12.736Z,71.83
2018-02-12T14:06:43.548Z,71.83
2018-02-12T14:09:15.464Z,73.52
2018-02-12T14:11:47.435Z,78.83
2018-02-12T14:14:18.403Z,78.98
2018-02-12T14:16:50.311Z,79.20
2018-02-12T14:19:24.531Z,73.14
2018-02-12T14:21:59.049Z,73.98
2018-02-12T14:24:30.955Z,67.55
2018-02-12T14:27:01.941Z,70.71
2018-02-12T14:29:32.850Z,73.93
2018-02-12T14:32:03.744Z,73.77
2018-02-12T14:34:34.733Z,72.44
2018-02-12T14:37:05.622Z,71.63
2018-02-12T14:39:36.520Z,72.28
2018-02-12T14:42:08.432Z,71.89
2018-02-12T14:44:39.306Z,74.39
2018-02-12T14:47:10.161Z,74.14
2018-02-12T14:49:42.231Z,75.73
2018-02-12T14:52:13.102Z,76.57
2018-02-12T14:54:43.938Z,75.00
2018-02-12T14:57:14.774Z,76.70
2018-02-12T14:59:49.909Z,76.39
2018-02-12T15:02:20.817Z,78.14
2018-02-12T15:04:51.782Z,77.54
2018-02-12T15:07:22.705Z,77.35
2018-02-12T15:09:53.641Z,77.36
2018-02-12T15:12:25.625Z,77.31
2018-02-12T15:14:56.563Z,75.15
2018-02-12T15:17:27.393Z,75.73
2018-02-12T15:19:58.333Z,75.77
2018-02-12T15:22:29.174Z,74.48
2018-02-12T15:25:00.127Z,76.44
2018-02-12T15:27:30.958Z,76.04
2018-02-12T15:30:01.886Z,76.16
2018-02-12T15:32:32.727Z,74.85
2018-02-12T15:35:03.646Z,75.55
2018-02-12T15:37:34.481Z,76.22
2018-02-12T15:40:05.474Z,76.27
2018-02-12T15:42:36.377Z,75.86
2018-02-12T15:45:07.255Z,77.19
2018-02-12T15:47:38.091Z,75.95
2018-02-12T15:50:08.964Z,78.05
2018-02-12T15:52:39.799Z,76.90
2018-02-12T15:55:10.700Z,78.06
2018-02-12T15:57:41.584Z,78.09
2018-02-12T16:00:12.480Z,79.25
2018-02-12T16:02:43.379Z,78.75
2018-02-12T16:05:14.213Z,80.73
2018-02-12T16:07:45.049Z,79.90
2018-02-12T16:10:15.865Z,80.43
2018-02-12T16:12:46.700Z,79.60
2018-02-12T16:15:17.538Z,80.59
2018-02-12T16:17:48.450Z,79.28
2018-02-12T16:20:19.298Z,79.61
2018-02-12T16:22:50.238Z,80.31
2018-02-12T16:25:21.133Z,81.87
2018-02-12T16:27:52.043Z,80.29
2018-02-12T16:30:22.906Z,79.89
2018-02-12T16:32:53.748Z,80.30
2018-02-12T16:35:24.627Z,80.15
2018-02-12T16:37:55.530Z,80.58
2018-02-12T16:40:26.411Z,81.60
2018-02-12T16:42:57.271Z,82.82
2018-02-12T16:45:28.106Z,84.20
2018-02-12T16:47:58.989Z,82.67
2018-02-12T16:50:29.848Z,83.61
2018-02-12T16:53:00.783Z,84.15
2018-02-12T16:55:31.702Z,85.03
2018-02-12T16:58:02.563Z,83.91
2018-02-12T17:00:33.417Z,84.33
2018-02-12T17:03:04.301Z,84.71
2018-02-12T17:05:35.139Z,85.35
2018-02-12T17:08:06.041Z,84.39
2018-02-12T17:10:36.999Z,84.74
2018-02-12T17:13:07.898Z,85.93
2018-02-12T17:15:38.841Z,85.83
2018-02-12T17:18:09.737Z,86.21
2018-02-12T17:20:40.565Z,87.10
2018-02-12T17:23:11.470Z,87.92
2018-02-12T17:25:42.344Z,89.22
2018-02-12T17:28:13.172Z,89.52
2018-02-12T17:30:44.009Z,88.28
2018-02-12T17:33:14.908Z,85.01
2018-02-12T17:35:45.728Z,84.13
2018-02-12T17:38:16.601Z,83.46
2018-02-12T17:40:47.442Z,84.05
2018-02-12T17:43:18.281Z,84.03
2018-02-12T17:45:49.100Z,83.97
2018-02-12T17:48:19.951Z,84.48
2018-02-12T17:50:50.805Z,84.70
2018-02-12T17:53:21.656Z,85.76
2018-02-12T17:55:52.478Z,86.18
2018-02-12T17:58:23.344Z,86.71
2018-02-12T18:00:54.240Z,86.80
2018-02-12T18:03:25.198Z,87.40
2018-02-12T18:05:56.103Z,87.76
2018-02-12T18:08:27.053Z,87.98
2018-02-12T18:10:57.912Z,87.81
2018-02-12T18:13:28.801Z,88.15
2018-02-12T18:15:59.634Z,88.41
2018-02-12T18:18:30.473Z,88.79
2018-02-12T18:21:01.287Z,88.51
2018-02-12T18:23:32.783Z,88.69
2018-02-12T18:26:03.619Z,88.46
2018-02-12T18:28:34.451Z,88.85
2018-02-12T18:31:05.260Z,88.67
2018-02-12T18:33:36.117Z,88.99
2018-02-12T18:36:06.949Z,89.15
2018-02-12T18:38:37.859Z,89.19
2018-02-12T18:41:08.757Z,89.55
2018-02-12T18:43:39.565Z,89.83
2018-02-12T18:46:10.354Z,90.41
2018-02-12T18:48:44.177Z,90.00
2018-02-12T18:51:15.025Z,89.67
2018-02-12T18:53:45.927Z,89.51
2018-02-12T18:56:16.912Z,89.71
2018-02-12T18:58:47.762Z,89.69
2018-02-12T19:01:18.616Z,90.02
2018-02-12T19:03:49.414Z,90.72
2018-02-12T19:06:20.229Z,90.73
2018-02-12T19:08:51.046Z,90.31
2018-02-12T19:11:21.901Z,90.09
2018-02-12T19:13:52.886Z,89.64
2018-02-12T19:16:23.710Z,90.32
2018-02-12T19:18:54.617Z,90.49
2018-02-12T19:21:25.451Z,90.11
2018-02-12T19:23:56.378Z,89.96
2018-02-12T19:26:27.264Z,90.34
2018-02-12T19:28:58.122Z,90.44
2018-02-12T19:31:28.960Z,90.62
2018-02-12T19:34:00.837Z,90.42
2018-02-12T19:36:31.678Z,90.34
2018-02-12T19:39:02.626Z,90.94
2018-02-12T19:41:33.480Z,91.26
2018-02-12T19:44:04.331Z,91.42
2018-02-12T19:46:35.260Z,91.65
2018-02-12T19:49:06.138Z,91.66
2018-02-12T19:51:37.049Z,91.70
2018-02-12T19:54:07.951Z,91.33
2018-02-12T19:56:38.825Z,91.05
2018-02-12T19:59:09.688Z,90.82
2018-02-12T20:01:40.520Z,90.86
2018-02-12T20:04:11.366Z,91.03
2018-02-12T20:06:44.206Z,91.40
2018-02-12T20:09:15.080Z,90.96
2018-02-12T20:11:45.918Z,91.35
2018-02-12T20:14:16.765Z,91.12
2018-02-12T20:16:47.564Z,90.87
2018-02-12T20:19:18.434Z,90.77
2018-02-12T20:21:49.238Z,90.75
2018-02-12T20:24:20.073Z,90.83
2018-02-12T20:26:50.911Z,90.45
2018-02-12T20:29:21.744Z,90.70
2018-02-12T20:31:52.560Z,90.72
2018-02-12T20:34:23.429Z,91.02
2018-02-12T20:36:54.296Z,90.83
2018-02-12T20:39:25.094Z,90.95
2018-02-12T20:41:55.907Z,91.20
2018-02-12T20:44:26.753Z,91.29
2018-02-12T20:46:57.631Z,91.40
2018-02-12T20:49:28.510Z,91.42
2018-02-12T20:51:59.327Z,91.58
2018-02-12T20:54:30.170Z,91.83
2018-02-12T20:57:01.000Z,91.96
2018-02-12T20:59:31.817Z,91.93
2018-02-12T21:02:02.659Z,92.00
2018-02-12T21:04:33.506Z,92.28
2018-02-12T21:07:04.325Z,92.38
2018-02-12T21:09:35.185Z,92.58
2018-02-12T21:12:06.001Z,92.44
2018-02-12T21:14:36.828Z,91.66
2018-02-12T21:17:07.637Z,91.56
2018-02-12T21:19:38.493Z,91.07
2018-02-12T21:22:10.395Z,91.03
2018-02-12T21:24:41.265Z,90.30
2018-02-12T21:27:12.093Z,89.62
2018-02-12T21:29:42.950Z,89.31
2018-02-12T21:32:13.749Z,89.67
2018-02-12T21:34:44.571Z,89.30
2018-02-12T21:37:15.411Z,89.29
2018-02-12T21:39:46.313Z,89.32
2018-02-12T21:42:17.127Z,89.04
2018-02-12T21:44:47.983Z,89.24
2018-02-12T21:47:18.824Z,88.95
2018-02-12T21:49:49.718Z,88.96
2018-02-12T21:52:20.533Z,88.80
2018-02-12T21:54:51.329Z,88.15
2018-02-12T21:57:22.142Z,87.94
2018-02-12T21:59:53.020Z,88.01
2018-02-12T22:02:23.847Z,88.72
2018-02-12T22:04:54.659Z,88.05
2018-02-12T22:07:25.451Z,87.60
2018-02-12T22:09:56.299Z,87.27
2018-02-12T22:12:27.163Z,87.22
2018-02-12T22:14:58.042Z,86.91
2018-02-12T22:17:28.818Z,87.07
2018-02-12T22:19:59.658Z,86.79
2018-02-12T22:22:30.491Z,87.02
2018-02-12T22:25:01.332Z,86.27
2018-02-12T22:27:32.215Z,86.99
2018-02-12T22:30:03.154Z,87.18
2018-02-12T22:32:33.987Z,86.95
2018-02-12T22:35:04.841Z,87.42
2018-02-12T22:37:35.673Z,87.08
2018-02-12T22:40:06.551Z,87.68
2018-02-12T22:42:37.354Z,87.74
2018-02-12T22:45:08.223Z,87.46
2018-02-12T22:47:39.052Z,87.33
2018-02-12T22:50:09.954Z,87.28
2018-02-12T22:52:40.813Z,87.13
2018-02-12T22:55:11.674Z,87.29
2018-02-12T22:57:42.485Z,87.45
2018-02-12T23:00:13.366Z,87.98
2018-02-12T23:02:44.220Z,88.40
2018-02-12T23:05:15.129Z,88.00
2018-02-12T23:07:46.053Z,88.04
2018-02-12T23:10:16.938Z,87.96
2018-02-12T23:12:47.784Z,88.07
2018-02-12T23:15:24.714Z,87.78
2018-02-12T23:17:55.593Z,88.01
2018-02-12T23:20:26.444Z,87.53
2018-02-12T23:22:59.316Z,87.74
2018-02-12T23:25:30.214Z,87.31
2018-02-12T23:28:01.053Z,87.57
2018-02-12T23:30:31.903Z,87.33
2018-02-12T23:33:02.729Z,87.69
2018-02-12T23:35:33.672Z,87.34
2018-02-12T23:38:04.504Z,88.03
2018-02-12T23:43:13.812Z,88.38
2018-02-12T23:45:44.643Z,88.27
2018-02-12T23:48:15.471Z,88.17
2018-02-12T23:50:46.294Z,87.50
2018-02-12T23:53:17.143Z,87.48
2018-02-12T23:55:47.969Z,87.63
2018-02-12T23:58:18.768Z,87.51
